createdAt,value
2022-10-14T00:01:43.181Z,10.25
2022-10-14T00:04:09.625Z,9.98
2022-10-14T00:06:36.024Z,10.05
2022-10-14T00:09:06.788Z,9.30
2022-10-14T00:11:34.819Z,8.75
2022-10-14T00:14:04.499Z,8.98
2022-10-14T00:16:34.153Z,8.93
2022-10-14T00:19:00.815Z,9.48
2022-10-14T00:21:28.392Z,9.95
2022-10-14T00:23:54.809Z,10.25
2022-10-14T00:26:26.706Z,10.60
2022-10-14T00:28:53.821Z,9.68
2022-10-14T00:31:20.615Z,9.52
2022-10-14T00:33:47.503Z,9.55
2022-10-14T00:36:16.216Z,9.85
2022-10-14T00:38:42.941Z,9.90
2022-10-14T00:41:13.356Z,10.38
2022-10-14T00:44:26.434Z,9.93
2022-10-14T00:46:53.563Z,9.73
2022-10-14T00:49:27.810Z,9.98
2022-10-14T00:51:58.380Z,11.00
2022-10-14T00:54:31.326Z,11.25
2022-10-14T00:56:57.995Z,11.68
2022-10-14T00:59:24.834Z,10.90
2022-10-14T01:01:51.437Z,10.82
2022-10-14T01:04:17.877Z,10.93
2022-10-14T01:07:03.487Z,11.48
2022-10-14T01:09:51.621Z,10.43
2022-10-14T01:12:32.987Z,11.98
2022-10-14T01:15:11.158Z,10.23
2022-10-14T01:18:01.887Z,10.18
2022-10-14T01:20:45.371Z,9.73
2022-10-14T01:23:36.830Z,10.52
2022-10-14T01:26:21.643Z,9.95
2022-10-14T01:29:18.727Z,11.00
2022-10-14T01:31:50.070Z,10.05
2022-10-14T01:34:25.367Z,9.73
2022-10-14T01:37:00.036Z,9.90
2022-10-14T01:39:31.714Z,9.70
2022-10-14T01:42:07.023Z,10.27
2022-10-14T01:44:38.933Z,8.85
2022-10-14T01:47:06.649Z,9.60
2022-10-14T01:49:38.824Z,9.30
2022-10-14T01:52:28.482Z,9.35
2022-10-14T01:54:59.059Z,9.90
2022-10-14T01:57:29.898Z,9.50
2022-10-14T01:59:57.238Z,9.00
2022-10-14T02:02:24.778Z,8.90
2022-10-14T02:04:51.662Z,8.68
2022-10-14T02:07:57.620Z,8.57
2022-10-14T02:11:02.385Z,8.98
2022-10-14T02:13:38.138Z,8.73
2022-10-14T02:16:17.536Z,8.35
2022-10-14T02:18:52.819Z,8.80
2022-10-14T02:21:43.264Z,8.02
2022-10-14T02:24:20.047Z,9.20
2022-10-14T02:26:49.022Z,8.48
2022-10-14T02:29:18.889Z,8.88
2022-10-14T02:31:46.375Z,8.38
2022-10-14T02:34:17.923Z,8.68
2022-10-14T02:36:46.109Z,8.65
2022-10-14T02:39:16.103Z,8.20
2022-10-14T02:41:42.803Z,8.40
2022-10-14T02:44:09.330Z,7.78
2022-10-14T02:46:36.103Z,8.15
2022-10-14T02:49:02.508Z,8.48
2022-10-14T02:51:28.914Z,7.85
2022-10-14T02:53:57.400Z,8.43
2022-10-14T02:56:24.290Z,8.15
2022-10-14T02:58:50.759Z,7.88
2022-10-14T03:01:17.255Z,7.47
2022-10-14T03:03:43.743Z,7.38
2022-10-14T03:06:10.182Z,7.72
2022-10-14T03:08:36.721Z,8.77
2022-10-14T03:11:03.100Z,8.07
2022-10-14T03:13:30.455Z,8.63
2022-10-14T03:15:56.948Z,7.38
2022-10-14T03:18:23.339Z,8.43
2022-10-14T03:20:49.873Z,7.63
2022-10-14T03:23:16.493Z,7.78
2022-10-14T03:25:45.947Z,7.63
2022-10-14T03:28:13.183Z,8.55
2022-10-14T03:30:39.835Z,7.32
2022-10-14T03:33:06.272Z,8.35
2022-10-14T03:35:32.886Z,8.30
2022-10-14T03:38:02.314Z,7.63
2022-10-14T03:40:29.461Z,7.80
2022-10-14T03:43:00.932Z,7.43
2022-10-14T03:45:28.497Z,7.85
2022-10-14T03:47:55.617Z,7.45
2022-10-14T03:50:22.488Z,10.32
2022-10-14T03:52:52.137Z,9.43
2022-10-14T03:55:21.850Z,11.57
2022-10-14T03:57:48.427Z,9.90
2022-10-14T04:00:15.379Z,9.85
2022-10-14T04:02:42.320Z,10.73
2022-10-14T04:05:09.259Z,9.70
2022-10-14T04:07:35.747Z,10.30
2022-10-14T04:10:02.207Z,9.38
2022-10-14T04:12:28.606Z,9.65
2022-10-14T04:14:57.029Z,9.23
2022-10-14T04:17:24.803Z,9.88
2022-10-14T04:19:52.023Z,8.90
2022-10-14T04:22:19.714Z,9.00
2022-10-14T04:24:46.327Z,8.73
2022-10-14T04:27:12.840Z,8.82
2022-10-14T04:29:39.373Z,8.75
2022-10-14T04:32:05.846Z,8.52
2022-10-14T04:34:32.238Z,8.80
2022-10-14T04:36:58.632Z,8.80
2022-10-14T04:39:25.186Z,9.07
2022-10-14T04:41:51.599Z,8.88
2022-10-14T04:44:18.060Z,8.80
2022-10-14T04:46:44.414Z,8.65
2022-10-14T04:49:12.593Z,9.20
2022-10-14T04:51:39.016Z,9.18
2022-10-14T04:54:06.288Z,8.10
2022-10-14T04:56:32.746Z,8.07
2022-10-14T04:58:59.154Z,9.00
2022-10-14T05:01:28.057Z,8.50
2022-10-14T05:03:56.671Z,7.93
2022-10-14T05:06:23.314Z,7.45
2022-10-14T05:08:49.686Z,8.32
2022-10-14T05:11:16.182Z,8.50
2022-10-14T05:13:42.607Z,8.90
2022-10-14T05:16:09.205Z,7.88
2022-10-14T05:18:35.660Z,8.52
2022-10-14T05:21:02.265Z,8.50
2022-10-14T05:23:28.727Z,8.25
2022-10-14T05:25:55.165Z,8.60
2022-10-14T05:28:21.629Z,8.48
2022-10-14T05:30:48.138Z,9.30
2022-10-14T05:33:14.659Z,8.77
2022-10-14T05:35:58.125Z,8.40
2022-10-14T05:38:25.575Z,8.38
2022-10-14T05:40:54.253Z,8.95
2022-10-14T05:43:21.434Z,8.15
2022-10-14T05:45:47.963Z,9.02
2022-10-14T05:48:14.330Z,8.80
2022-10-14T05:50:42.206Z,8.40
2022-10-14T05:53:08.803Z,8.40
2022-10-14T05:55:35.326Z,8.35
2022-10-14T05:58:02.073Z,9.73
2022-10-14T06:00:28.569Z,8.52
2022-10-14T06:02:57.876Z,8.23
2022-10-14T06:05:24.935Z,7.60
2022-10-14T06:07:51.500Z,8.27
2022-10-14T06:10:18.132Z,8.63
2022-10-14T06:12:44.551Z,7.85
2022-10-14T06:15:11.088Z,7.72
2022-10-14T06:17:37.584Z,7.35
2022-10-14T06:20:04.149Z,7.78
2022-10-14T06:22:30.773Z,6.82
2022-10-14T06:25:00.498Z,6.93
2022-10-14T06:27:30.360Z,7.25
2022-10-14T06:29:56.899Z,6.40
2022-10-14T06:32:23.651Z,6.47
2022-10-14T06:34:50.356Z,6.78
2022-10-14T06:37:16.707Z,6.82
2022-10-14T06:39:45.046Z,6.30
2022-10-14T06:42:13.186Z,6.45
2022-10-14T06:44:39.959Z,6.55
2022-10-14T06:47:07.480Z,6.18
2022-10-14T06:49:34.153Z,5.80
2022-10-14T06:52:00.584Z,5.57
2022-10-14T06:54:27.003Z,5.57
2022-10-14T06:56:53.402Z,5.75
2022-10-14T06:59:19.892Z,5.47
2022-10-14T07:01:46.404Z,5.68
2022-10-14T07:04:12.870Z,5.00
2022-10-14T07:06:39.377Z,5.00
2022-10-14T07:09:05.824Z,5.57
2022-10-14T07:11:32.297Z,5.07
2022-10-14T07:13:59.335Z,4.53
2022-10-14T07:16:26.496Z,4.32
2022-10-14T07:18:52.864Z,5.63
2022-10-14T07:21:19.587Z,4.60
2022-10-14T07:23:46.571Z,5.22
2022-10-14T07:26:13.139Z,5.20
2022-10-14T07:28:39.573Z,5.18
2022-10-14T07:31:11.175Z,5.05
2022-10-14T07:33:39.246Z,4.78
2022-10-14T07:36:10.067Z,5.05
2022-10-14T07:38:37.035Z,6.07
2022-10-14T07:41:16.798Z,5.30
2022-10-14T07:43:45.070Z,5.03
2022-10-14T07:46:12.733Z,6.60
2022-10-14T07:48:52.690Z,5.18
2022-10-14T07:51:23.003Z,5.70
2022-10-14T07:53:50.147Z,5.22
2022-10-14T07:56:16.555Z,6.10
2022-10-14T07:58:44.574Z,7.45
2022-10-14T08:01:11.284Z,5.78
2022-10-14T08:03:37.703Z,5.18
2022-10-14T08:06:05.345Z,5.32
2022-10-14T08:08:31.770Z,5.20
2022-10-14T08:11:19.681Z,4.72
2022-10-14T08:13:46.737Z,4.85
2022-10-14T08:16:16.100Z,4.70
2022-10-14T08:18:43.018Z,6.32
2022-10-14T08:21:09.426Z,4.95
2022-10-14T08:23:35.850Z,4.88
2022-10-14T08:26:02.322Z,5.30
2022-10-14T08:28:28.807Z,4.80
2022-10-14T08:30:55.395Z,4.40
2022-10-14T08:33:21.980Z,5.10
2022-10-14T08:35:53.079Z,4.65
2022-10-14T08:38:25.053Z,4.80
2022-10-14T08:41:13.116Z,6.30
2022-10-14T08:44:07.933Z,4.32
2022-10-14T08:46:51.039Z,4.30
2022-10-14T08:49:31.619Z,4.07
2022-10-14T08:52:06.807Z,4.35
2022-10-14T08:54:47.553Z,4.30
2022-10-14T08:57:20.775Z,3.92
2022-10-14T08:59:47.363Z,4.00
2022-10-14T09:02:35.681Z,4.40
2022-10-14T09:05:03.443Z,4.15
2022-10-14T09:07:33.168Z,3.88
2022-10-14T09:10:06.964Z,3.83
2022-10-14T09:12:35.789Z,3.83
2022-10-14T09:15:12.125Z,3.35
2022-10-14T09:17:45.668Z,3.40
2022-10-14T09:20:25.235Z,3.13
2022-10-14T09:23:17.989Z,3.15
2022-10-14T09:25:50.679Z,4.18
2022-10-14T09:28:19.349Z,4.40
2022-10-14T09:30:45.871Z,3.88
2022-10-14T09:33:18.613Z,3.60
2022-10-14T09:35:45.650Z,4.50
2022-10-14T09:38:13.606Z,3.78
2022-10-14T09:40:45.450Z,3.72
2022-10-14T09:43:16.647Z,3.38
2022-10-14T09:45:57.523Z,2.78
2022-10-14T09:48:40.266Z,3.08
2022-10-14T09:51:22.056Z,3.03
2022-10-14T09:53:52.386Z,2.97
2022-10-14T09:56:30.844Z,3.13
2022-10-14T09:58:58.436Z,2.83
2022-10-14T10:01:27.599Z,3.03
2022-10-14T10:03:55.777Z,2.60
2022-10-14T10:06:25.804Z,2.30
2022-10-14T10:08:55.342Z,2.97
2022-10-14T10:11:38.183Z,2.92
2022-10-14T10:14:23.075Z,3.20
2022-10-14T10:16:52.070Z,3.20
2022-10-14T10:19:21.185Z,2.83
2022-10-14T10:21:47.692Z,2.70
2022-10-14T10:24:25.990Z,2.97
2022-10-14T10:26:55.153Z,2.50
2022-10-14T10:29:31.754Z,2.85
2022-10-14T10:32:06.747Z,1.80
2022-10-14T10:34:56.497Z,1.90
2022-10-14T10:37:28.070Z,2.05
2022-10-14T10:40:21.565Z,1.90
2022-10-14T10:43:03.742Z,1.90
2022-10-14T10:45:48.891Z,1.58
2022-10-14T10:48:55.476Z,2.08
2022-10-14T10:51:31.758Z,2.03
2022-10-14T10:54:13.243Z,1.75
2022-10-14T10:56:52.743Z,1.95
2022-10-14T10:59:24.988Z,3.75
2022-10-14T11:02:00.970Z,2.60
2022-10-14T11:04:45.239Z,2.58
2022-10-14T11:08:08.959Z,2.58
2022-10-14T11:11:22.831Z,2.60
2022-10-14T11:13:56.491Z,2.40
2022-10-14T11:16:34.875Z,2.40
2022-10-14T11:19:14.602Z,2.80
2022-10-14T11:22:04.646Z,2.75
2022-10-14T11:24:39.697Z,2.75
2022-10-14T11:27:27.689Z,2.67
2022-10-14T11:30:13.693Z,3.13
2022-10-14T11:33:11.208Z,3.47
2022-10-14T11:36:22.557Z,3.17
2022-10-14T11:39:03.995Z,3.30
2022-10-14T11:41:59.048Z,3.70
2022-10-14T11:44:38.655Z,3.20
2022-10-14T11:47:15.838Z,3.00
2022-10-14T11:49:58.842Z,3.67
2022-10-14T11:52:32.708Z,2.97
2022-10-14T11:55:13.759Z,3.28
2022-10-14T11:57:45.253Z,3.08
2022-10-14T12:00:37.728Z,3.80
2022-10-14T12:03:38.194Z,3.38
2022-10-14T12:06:13.418Z,3.47
2022-10-14T12:08:50.273Z,3.70
2022-10-14T12:11:28.448Z,4.05
2022-10-14T12:14:05.435Z,3.30
2022-10-14T12:16:33.183Z,3.17
2022-10-14T12:18:59.984Z,3.95
2022-10-14T12:21:49.791Z,3.80
2022-10-14T12:24:21.050Z,3.97
2022-10-14T12:26:55.177Z,3.30
2022-10-14T12:29:25.119Z,3.90
2022-10-14T12:32:07.158Z,3.13
2022-10-14T12:34:41.726Z,3.38
2022-10-14T12:37:35.243Z,2.80
2022-10-14T12:40:02.101Z,3.08
2022-10-14T12:42:34.882Z,3.42
2022-10-14T12:45:14.235Z,3.28
2022-10-14T12:47:41.357Z,3.47
2022-10-14T12:50:17.666Z,3.95
2022-10-14T12:52:47.050Z,4.00
2022-10-14T12:55:18.537Z,4.20
2022-10-14T12:58:02.833Z,4.78
2022-10-14T13:00:34.051Z,3.70
2022-10-14T13:03:03.200Z,3.83
2022-10-14T13:05:29.685Z,3.63
2022-10-14T13:08:20.681Z,4.03
2022-10-14T13:10:53.587Z,3.97
2022-10-14T13:13:38.586Z,4.15
2022-10-14T13:16:06.551Z,3.78
2022-10-14T13:18:39.120Z,4.13
2022-10-14T13:21:07.773Z,4.05
2022-10-14T13:23:43.180Z,3.83
2022-10-14T13:26:18.564Z,4.40
2022-10-14T13:28:49.682Z,4.68
2022-10-14T13:31:26.696Z,3.92
2022-10-14T13:34:01.632Z,4.78
2022-10-14T13:36:37.609Z,4.40
2022-10-14T13:39:05.030Z,4.07
2022-10-14T13:41:34.553Z,4.32
2022-10-14T13:44:02.429Z,4.10
2022-10-14T13:46:37.504Z,3.80
2022-10-14T13:49:06.847Z,4.25
2022-10-14T13:51:44.954Z,4.00
2022-10-14T13:54:11.368Z,3.83
2022-10-14T13:56:37.895Z,4.00
2022-10-14T13:59:39.242Z,4.40
2022-10-14T14:02:14.234Z,4.45
2022-10-14T14:04:43.507Z,4.32
2022-10-14T14:07:58.967Z,4.72
2022-10-14T14:10:09.340Z,5.82
2022-10-14T14:12:35.884Z,4.72
2022-10-14T14:15:02.551Z,4.30
2022-10-14T14:17:33.286Z,4.47
2022-10-14T14:19:59.862Z,6.50
2022-10-14T14:22:28.895Z,4.60
2022-10-14T14:25:40.230Z,4.50
2022-10-14T14:28:07.056Z,7.57
2022-10-14T14:30:38.813Z,5.03
2022-10-14T14:33:13.292Z,4.68
2022-10-14T14:35:43.734Z,7.82
2022-10-14T14:38:35.265Z,4.80
2022-10-14T14:41:14.652Z,4.50
2022-10-14T14:43:47.313Z,4.82
2022-10-14T14:46:40.813Z,4.43
2022-10-14T14:49:08.585Z,4.75
2022-10-14T14:51:39.100Z,4.60
2022-10-14T14:54:07.427Z,5.10
2022-10-14T14:56:41.097Z,4.90
2022-10-14T14:59:23.373Z,4.00
2022-10-14T15:01:50.174Z,4.53
2022-10-14T15:04:19.525Z,4.05
2022-10-14T15:07:20.093Z,4.72
2022-10-14T15:09:54.692Z,4.63
2022-10-14T15:12:34.232Z,4.28
2022-10-14T15:15:02.308Z,4.70
2022-10-14T15:17:44.782Z,4.75
2022-10-14T15:20:11.158Z,4.47
2022-10-14T15:22:39.908Z,4.75
2022-10-14T15:25:12.090Z,4.30
2022-10-14T15:27:41.745Z,4.78
2022-10-14T15:30:19.803Z,4.63
2022-10-14T15:32:47.245Z,4.50
2022-10-14T15:35:15.255Z,4.80
2022-10-14T15:37:41.923Z,4.80
2022-10-14T15:40:14.333Z,4.53
2022-10-14T15:42:41.002Z,3.78
2022-10-14T15:45:08.372Z,4.70
2022-10-14T15:47:35.853Z,4.50
2022-10-14T15:50:08.063Z,4.90
2022-10-14T15:52:34.592Z,4.30
2022-10-14T15:55:01.079Z,4.20
2022-10-14T15:57:27.442Z,4.63
2022-10-14T15:59:54.553Z,4.18
2022-10-14T16:02:35.862Z,4.45
2022-10-14T16:07:49.267Z,4.78
2022-10-14T16:10:18.723Z,4.90
2022-10-14T16:12:45.440Z,5.07
2022-10-14T16:15:42.989Z,4.60
2022-10-14T16:18:09.535Z,4.53
2022-10-14T16:20:35.989Z,4.75
2022-10-14T16:23:04.677Z,6.03
2022-10-14T16:25:43.950Z,4.80
2022-10-14T16:28:11.735Z,4.32
2022-10-14T16:30:41.010Z,4.68
2022-10-14T16:33:07.733Z,5.47
2022-10-14T16:35:34.151Z,5.22
2022-10-14T16:38:00.531Z,5.40
2022-10-14T16:40:26.974Z,5.35
2022-10-14T16:42:53.530Z,5.03
2022-10-14T16:45:19.963Z,4.82
2022-10-14T16:47:46.450Z,5.30
2022-10-14T16:50:13.459Z,5.22
2022-10-14T16:53:00.863Z,5.50
2022-10-14T16:55:30.782Z,6.43
2022-10-14T16:57:57.219Z,9.65
2022-10-14T17:00:23.891Z,8.70
2022-10-14T17:02:50.320Z,12.82
2022-10-14T17:05:17.617Z,6.05
2022-10-14T17:07:43.982Z,6.82
2022-10-14T17:10:10.931Z,6.47
2022-10-14T17:12:37.938Z,5.88
2022-10-14T17:15:05.638Z,5.50
2022-10-14T17:17:32.592Z,5.45
2022-10-14T17:19:59.053Z,4.38
2022-10-14T17:22:25.733Z,5.15
2022-10-14T17:24:52.481Z,5.50
2022-10-14T17:27:22.381Z,5.05
2022-10-14T17:29:48.791Z,4.80
2022-10-14T17:32:15.194Z,4.70
2022-10-14T17:34:41.588Z,4.65
2022-10-14T17:39:35.837Z,5.03
2022-10-14T17:42:02.198Z,4.30
2022-10-14T17:44:28.920Z,5.57
2022-10-14T17:46:55.442Z,4.18
2022-10-14T17:49:21.989Z,4.00
2022-10-14T17:51:48.680Z,3.20
2022-10-14T17:54:15.107Z,6.70
2022-10-14T17:56:41.569Z,3.70
2022-10-14T17:59:11.985Z,3.97
2022-10-14T18:04:25.222Z,4.22
2022-10-14T18:06:52.796Z,4.00
2022-10-14T18:09:19.294Z,3.95
2022-10-14T18:14:34.042Z,4.15
2022-10-14T18:17:01.011Z,3.67
2022-10-14T18:19:27.703Z,3.25
2022-10-14T18:21:54.208Z,4.10
2022-10-14T18:24:20.619Z,3.70
2022-10-14T18:26:49.836Z,3.58
2022-10-14T18:29:16.501Z,4.10
2022-10-14T18:31:43.042Z,3.30
2022-10-14T18:34:11.276Z,6.20
2022-10-14T18:36:38.237Z,3.75
2022-10-14T18:39:08.221Z,2.85
2022-10-14T18:41:37.362Z,2.80
2022-10-14T18:44:05.445Z,2.83
2022-10-14T18:46:34.187Z,2.22
2022-10-14T18:49:01.948Z,2.38
2022-10-14T18:51:31.157Z,2.33
2022-10-14T18:54:00.135Z,2.13
2022-10-14T18:56:29.781Z,2.78
2022-10-14T19:01:29.125Z,2.22
2022-10-14T19:03:56.003Z,1.92
2022-10-14T19:06:23.691Z,2.17
2022-10-14T19:08:52.048Z,1.90
2022-10-14T19:11:20.955Z,1.75
2022-10-14T19:13:50.079Z,2.13
2022-10-14T19:16:17.715Z,1.50
2022-10-14T19:18:44.781Z,1.42
2022-10-14T19:21:14.139Z,1.88
2022-10-14T19:23:45.135Z,1.73
2022-10-14T19:26:19.934Z,1.60
2022-10-14T19:28:46.500Z,1.90
2022-10-14T19:31:28.121Z,1.52
2022-10-14T19:33:55.873Z,1.80
2022-10-14T19:36:24.585Z,1.83
2022-10-14T19:38:59.637Z,1.48
2022-10-14T19:41:28.471Z,1.38
2022-10-14T19:43:57.129Z,1.55
2022-10-14T19:46:27.296Z,1.70
2022-10-14T19:49:02.321Z,2.05
2022-10-14T19:51:29.595Z,1.70
2022-10-14T19:53:57.273Z,1.60
2022-10-14T19:56:25.319Z,1.67
2022-10-14T19:58:54.213Z,2.13
2022-10-14T20:01:25.795Z,2.00
2022-10-14T20:03:52.985Z,1.95
2022-10-14T20:06:20.522Z,2.30
2022-10-14T20:08:47.079Z,1.90
2022-10-14T20:11:16.361Z,2.15
2022-10-14T20:13:45.828Z,1.80
2022-10-14T20:16:13.166Z,1.60
2022-10-14T20:18:40.002Z,2.15
2022-10-14T20:21:07.467Z,2.20
2022-10-14T20:23:35.664Z,1.52
2022-10-14T20:26:03.234Z,1.80
2022-10-14T20:28:29.767Z,1.90
2022-10-14T20:30:57.388Z,2.00
2022-10-14T20:33:24.201Z,1.73
2022-10-14T20:36:08.426Z,1.90
2022-10-14T20:38:37.722Z,1.73
2022-10-14T20:41:12.425Z,1.88
2022-10-14T20:43:40.647Z,1.70
2022-10-14T20:46:07.190Z,1.77
2022-10-14T20:48:33.736Z,1.63
2022-10-14T20:51:00.139Z,1.58
2022-10-14T20:53:28.600Z,1.92
2022-10-14T20:55:55.027Z,1.80
2022-10-14T20:58:21.404Z,2.00
2022-10-14T21:00:47.790Z,1.50
2022-10-14T21:03:14.159Z,1.80
2022-10-14T21:05:40.537Z,1.90
2022-10-14T21:08:07.000Z,2.00
2022-10-14T21:10:33.371Z,1.85
2022-10-14T21:12:59.763Z,1.67
2022-10-14T21:15:26.937Z,1.80
2022-10-14T21:17:53.583Z,1.67
2022-10-14T21:20:20.117Z,1.60
2022-10-14T21:22:46.591Z,1.80
2022-10-14T21:25:13.099Z,1.73
2022-10-14T21:27:39.792Z,1.88
2022-10-14T21:30:06.927Z,1.60
2022-10-14T21:32:33.363Z,1.65
2022-10-14T21:34:59.922Z,1.98
2022-10-14T21:37:26.320Z,1.95
2022-10-14T21:39:52.711Z,1.98
2022-10-14T21:42:19.157Z,1.50
2022-10-14T21:44:45.623Z,1.48
2022-10-14T21:47:12.131Z,1.30
2022-10-14T21:49:38.599Z,1.70
2022-10-14T21:52:05.070Z,1.60
2022-10-14T21:54:31.538Z,1.48
2022-10-14T21:56:57.916Z,1.52
2022-10-14T21:59:24.381Z,1.60
2022-10-14T22:01:51.008Z,1.60
2022-10-14T22:04:17.375Z,1.63
2022-10-14T22:06:43.821Z,1.35
2022-10-14T22:09:10.379Z,1.70
2022-10-14T22:11:39.773Z,1.45
2022-10-14T22:14:10.861Z,1.40
2022-10-14T22:16:37.699Z,1.98
2022-10-14T22:19:06.335Z,1.80
2022-10-14T22:21:35.085Z,2.05
2022-10-14T22:24:01.881Z,2.10
2022-10-14T22:26:30.417Z,2.03
2022-10-14T22:29:17.238Z,2.28
2022-10-14T22:31:44.123Z,2.33
2022-10-14T22:34:12.898Z,2.42
2022-10-14T22:36:40.588Z,2.42
2022-10-14T22:39:11.035Z,2.20
2022-10-14T22:41:37.487Z,2.42
2022-10-14T22:44:05.372Z,2.20
2022-10-14T22:46:33.894Z,2.10
2022-10-14T22:49:01.788Z,2.10
2022-10-14T22:51:31.312Z,2.45
2022-10-14T22:53:58.183Z,2.15
2022-10-14T22:56:27.203Z,2.10
2022-10-14T22:59:01.544Z,2.28
2022-10-14T23:01:28.788Z,2.35
2022-10-14T23:03:56.591Z,2.60
2022-10-14T23:06:23.226Z,2.25
2022-10-14T23:08:49.729Z,2.40
2022-10-14T23:11:18.784Z,2.42
2022-10-14T23:13:45.840Z,2.40
2022-10-14T23:16:18.151Z,2.47
2022-10-14T23:18:45.470Z,2.50
2022-10-14T23:21:25.759Z,2.42
2022-10-14T23:23:53.523Z,2.92
2022-10-14T23:26:22.909Z,2.50
2022-10-14T23:28:51.080Z,2.47
2022-10-14T23:31:19.372Z,2.72
2022-10-14T23:33:45.934Z,2.85
2022-10-14T23:36:13.730Z,2.75
2022-10-14T23:38:40.760Z,2.60
2022-10-14T23:41:08.629Z,2.65
2022-10-14T23:43:35.367Z,2.63
2022-10-14T23:46:02.409Z,2.70
2022-10-14T23:48:29.095Z,2.97
2022-10-14T23:50:56.013Z,2.80
2022-10-14T23:53:22.527Z,2.42
2022-10-14T23:55:49.187Z,2.70
2022-10-14T23:58:15.731Z,2.97
